Terminal Aerodrome Forecast
Issued by NWS

Home | Current Version | Previous Version | Text Only | Print | Product List | Glossary On
Versions: 1 2 3 4 5 6 7 8 9 10 11 12 13 14 15
000
FTUS41 KBTV 221100
TAFSLK
TAF
KSLK 221120Z 2212/2312 00000KT 1/4SM FG VV002
     FM221300 22006KT P6SM FEW050
     FM230200 VRB03KT P6SM SCT200=

USA.gov is the U.S. government's official web portal to all federal, state and local government web resources and services.